Time;durP1;ratioP1;P1;durP2;ratioP2;P2;SDS_P1;SDS_P2;PMS_P1;PMS_P2;Temp;Humidity;BMP_temperature;BMP_pressure;BME280_temperature;BME280_humidity;BME280_pressure;Samples;Min_cycle;Max_cycle;Signal;HPM_P1;HPM_P2
2021/12/31 00:00:31;;;;;;;62.15;35.97;;;;;;;;;;4981517;28;20163;-85
2021/12/31 00:02:57;;;;;;;57.92;33.58;;;;;;;;;;5000923;28;20149;-84
2021/12/31 00:05:23;;;;;;;60.75;36.80;;;;;;;;;;5000635;28;20026;-85
2021/12/31 00:07:49;;;;;;;58.50;34.50;;;;;;;;;;4983202;28;20039;-85
2021/12/31 00:10:16;;;;;;;65.50;37.10;;;;;;;;;;4983368;28;20034;-85
2021/12/31 00:12:43;;;;;;;61.33;37.33;;;;;;;;;;5000659;28;20053;-85
2021/12/31 00:15:10;;;;;;;59.75;36.25;;;;;;;;;;5000494;28;20027;-85
2021/12/31 00:17:36;;;;;;;59.92;37.40;;;;;;;;;;5000044;28;20027;-85
2021/12/31 00:20:12;;;;;;;62.67;37.97;;;;;;;;;;5000348;28;20065;-85
2021/12/31 00:25:04;;;;;;;65.85;38.75;;;;;;;;;;5000589;28;20034;-85
2021/12/31 00:27:30;;;;;;;66.88;40.05;;;;;;;;;;5000388;28;20376;-85
2021/12/31 00:29:56;;;;;;;61.38;36.42;;;;;;;;;;5000313;28;20417;-85
2021/12/31 00:32:22;;;;;;;58.67;35.38;;;;;;;;;;4982835;28;20057;-85
2021/12/31 00:34:48;;;;;;;54.35;33.55;;;;;;;;;;5000180;28;20130;-85
2021/12/31 00:37:25;;;;;;;55.03;33.95;;;;;;;;;;4999802;28;20019;-85
2021/12/31 00:39:51;;;;;;;56.35;32.88;;;;;;;;;;4982911;28;20022;-85
2021/12/31 00:42:17;;;;;;;56.10;32.30;;;;;;;;;;5000190;28;20022;-85
2021/12/31 00:44:43;;;;;;;49.65;30.25;;;;;;;;;;4982709;28;20125;-84
2021/12/31 00:47:09;;;;;;;53.40;30.92;;;;;;;;;;4982705;28;20022;-85
2021/12/31 00:49:35;;;;;;;50.47;29.20;;;;;;;;;;4999748;28;20026;-85
2021/12/31 00:52:01;;;;;;;49.63;29.73;;;;;;;;;;4999874;28;20019;-85
2021/12/31 00:54:27;;;;;;;45.58;27.77;;;;;;;;;;5000013;28;20109;-85
2021/12/31 00:56:59;;;;;;;44.38;27.20;;;;;;;;;;4982576;28;20038;-85
2021/12/31 00:59:25;;;;;;;48.20;27.98;;;;;;;;;;4982701;28;20141;-85
2021/12/31 01:01:51;;;;;;;43.63;26.83;;;;;;;;;;4999545;28;20050;-86
2021/12/31 01:04:17;;;;;;;45.13;27.38;;;;;;;;;;4999681;28;20030;-85
2021/12/31 01:06:43;;;;;;;49.75;28.83;;;;;;;;;;4999403;28;20436;-86
2021/12/31 01:09:09;;;;;;;49.63;29.67;;;;;;;;;;4999303;28;20413;-85
2021/12/31 01:11:35;;;;;;;50.03;29.27;;;;;;;;;;4999032;28;20023;-85
2021/12/31 01:14:03;;;;;;;48.50;28.98;;;;;;;;;;4999306;28;20027;-85
2021/12/31 01:16:38;;;;;;;61.00;34.05;;;;;;;;;;4982111;28;20093;-85
2021/12/31 01:21:33;;;;;;;64.38;36.97;;;;;;;;;;4999197;28;20056;-85
2021/12/31 01:24:00;;;;;;;68.80;38.17;;;;;;;;;;4981982;28;20023;-85
2021/12/31 01:26:27;;;;;;;87.03;45.45;;;;;;;;;;4999297;28;20027;-85
2021/12/31 01:28:53;;;;;;;97.60;48.95;;;;;;;;;;4981830;28;20038;-85
2021/12/31 01:31:21;;;;;;;148.82;72.38;;;;;;;;;;4999161;28;20041;-85
2021/12/31 01:33:47;;;;;;;115.45;59.75;;;;;;;;;;4981837;28;20026;-85
2021/12/31 01:36:13;;;;;;;87.13;49.92;;;;;;;;;;4998872;28;20065;-84
2021/12/31 01:38:39;;;;;;;79.78;47.20;;;;;;;;;;4998815;28;20117;-85
2021/12/31 01:41:05;;;;;;;74.88;42.22;;;;;;;;;;4998970;28;20293;-85
2021/12/31 01:43:31;;;;;;;69.15;40.10;;;;;;;;;;4998891;28;20022;-84
2021/12/31 01:46:00;;;;;;;66.47;37.80;;;;;;;;;;4998962;28;20046;-85
2021/12/31 01:48:36;;;;;;;58.20;36.45;;;;;;;;;;4981423;28;20031;-85
2021/12/31 01:51:02;;;;;;;62.03;36.08;;;;;;;;;;4998601;28;20117;-85
2021/12/31 01:53:29;;;;;;;55.08;34.45;;;;;;;;;;4981300;28;20073;-84
2021/12/31 01:55:56;;;;;;;57.55;34.85;;;;;;;;;;4998638;28;20069;-84
2021/12/31 01:58:23;;;;;;;56.78;35.17;;;;;;;;;;4998520;28;20031;-84
2021/12/31 02:00:51;;;;;;;61.88;36.72;;;;;;;;;;4998091;28;20092;-84
2021/12/31 02:03:21;;;;;;;62.80;36.83;;;;;;;;;;4981258;28;20074;-84
2021/12/31 02:05:47;;;;;;;63.70;37.17;;;;;;;;;;4998640;28;20034;-84
2021/12/31 02:08:13;;;;;;;56.00;34.45;;;;;;;;;;4980678;28;20425;-84
2021/12/31 02:10:39;;;;;;;50.72;30.80;;;;;;;;;;4998928;28;20053;-84
2021/12/31 02:13:07;;;;;;;52.13;30.90;;;;;;;;;;4981083;28;20086;-84
2021/12/31 02:15:33;;;;;;;55.10;30.63;;;;;;;;;;4998194;28;20054;-85
2021/12/31 02:18:00;;;;;;;67.05;38.63;;;;;;;;;;4980760;28;20038;-85
2021/12/31 02:20:41;;;;;;;72.65;41.17;;;;;;;;;;4998188;28;20032;-85
2021/12/31 02:23:08;;;;;;;60.08;36.80;;;;;;;;;;4980956;28;20483;-84
2021/12/31 02:25:37;;;;;;;57.85;34.83;;;;;;;;;;4998220;28;20316;-85
2021/12/31 02:28:04;;;;;;;50.13;31.15;;;;;;;;;;4998161;28;20026;-85
2021/12/31 02:30:30;;;;;;;56.25;32.97;;;;;;;;;;4980864;28;20035;-85
2021/12/31 02:32:56;;;;;;;50.80;31.92;;;;;;;;;;4983243;28;20073;-96
2021/12/31 02:35:22;;;;;;;51.03;31.88;;;;;;;;;;4998152;28;20026;-95
2021/12/31 02:37:48;;;;;;;51.92;31.27;;;;;;;;;;4998096;28;20066;-95
2021/12/31 02:40:16;;;;;;;46.83;29.98;;;;;;;;;;4998188;28;20051;-95
2021/12/31 02:42:42;;;;;;;49.40;30.90;;;;;;;;;;4998068;28;20030;-95
2021/12/31 02:45:09;;;;;;;48.88;30.42;;;;;;;;;;4998074;28;20070;-96
2021/12/31 02:47:37;;;;;;;47.85;29.05;;;;;;;;;;4998169;28;20046;-96
2021/12/31 02:50:05;;;;;;;49.80;30.05;;;;;;;;;;4981017;28;20076;-94
2021/12/31 02:52:31;;;;;;;46.22;27.85;;;;;;;;;;4980815;28;20034;-95
2021/12/31 02:54:59;;;;;;;49.72;30.25;;;;;;;;;;4980916;28;20041;-93
2021/12/31 02:57:25;;;;;;;49.85;31.73;;;;;;;;;;4997719;28;20063;-94
2021/12/31 02:59:52;;;;;;;50.47;30.13;;;;;;;;;;4997952;28;20023;-94
2021/12/31 03:02:24;;;;;;;51.17;30.60;;;;;;;;;;4997750;28;20077;-94
2021/12/31 03:04:50;;;;;;;;;;;;;;;;;;4998531;28;20309;-95
2021/12/31 03:07:17;;;;;;;50.95;29.63;;;;;;;;;;4998193;28;19909;-94
2021/12/31 03:09:46;;;;;;;54.40;32.58;;;;;;;;;;4997844;28;20121;-94
2021/12/31 03:12:13;;;;;;;52.65;31.80;;;;;;;;;;4980689;28;20302;-93
2021/12/31 03:14:40;;;;;;;50.28;30.20;;;;;;;;;;4997769;28;20409;-93
2021/12/31 03:17:07;;;;;;;53.85;31.30;;;;;;;;;;4997732;28;20023;-95
2021/12/31 03:19:33;;;;;;;53.08;31.02;;;;;;;;;;4998149;28;20023;-93
2021/12/31 03:21:59;;;;;;;54.25;31.20;;;;;;;;;;5001692;28;20030;-93
2021/12/31 03:24:25;;;;;;;54.28;30.65;;;;;;;;;;5001616;28;20029;-94
2021/12/31 03:26:51;;;;;;;50.65;30.20;;;;;;;;;;4984504;28;20058;-95
2021/12/31 03:29:17;;;;;;;47.67;30.45;;;;;;;;;;4984413;28;20034;-94
2021/12/31 03:31:44;;;;;;;49.85;30.17;;;;;;;;;;5001705;28;20031;-94
2021/12/31 03:34:14;;;;;;;47.50;29.52;;;;;;;;;;5001605;28;20042;-93
2021/12/31 03:36:41;;;;;;;45.83;28.77;;;;;;;;;;4984320;28;20327;-93
2021/12/31 03:39:07;;;;;;;52.65;30.33;;;;;;;;;;5001174;28;20033;-93
2021/12/31 03:41:33;;;;;;;48.30;28.85;;;;;;;;;;5001432;28;20027;-93
2021/12/31 03:43:59;;;;;;;50.72;30.63;;;;;;;;;;5001304;28;20026;-96
2021/12/31 03:46:25;;;;;;;52.88;32.35;;;;;;;;;;4984072;28;20026;-95
2021/12/31 03:48:51;;;;;;;53.65;30.40;;;;;;;;;;5001295;28;20429;-95
2021/12/31 03:51:17;;;;;;;45.20;28.27;;;;;;;;;;4983894;28;20034;-94
2021/12/31 03:53:43;;;;;;;48.95;29.58;;;;;;;;;;4983865;28;20038;-96
2021/12/31 03:56:10;;;;;;;47.83;28.92;;;;;;;;;;4983983;28;20030;-94
2021/12/31 03:58:36;;;;;;;51.70;30.10;;;;;;;;;;4983730;28;20058;-94
2021/12/31 04:01:02;;;;;;;48.58;29.98;;;;;;;;;;4983555;28;20023;-95
2021/12/31 04:03:28;;;;;;;52.30;30.83;;;;;;;;;;5000751;28;20031;-94
2021/12/31 04:05:54;;;;;;;52.28;30.73;;;;;;;;;;4983724;28;20427;-95
2021/12/31 04:08:20;;;;;;;49.47;30.52;;;;;;;;;;5001008;28;20109;-95
2021/12/31 04:10:46;;;;;;;53.97;31.75;;;;;;;;;;4983582;28;20029;-95
2021/12/31 04:13:12;;;;;;;50.38;31.17;;;;;;;;;;5000663;28;20093;-94
2021/12/31 04:15:38;;;;;;;53.80;31.08;;;;;;;;;;5000406;28;20045;-94
2021/12/31 04:18:05;;;;;;;50.08;31.02;;;;;;;;;;5000453;28;20491;-95
2021/12/31 04:23:02;;;;;;;54.78;31.75;;;;;;;;;;5000839;28;20416;-94
2021/12/31 04:25:28;;;;;;;57.42;33.17;;;;;;;;;;4983404;28;20040;-96
2021/12/31 04:27:54;;;;;;;49.88;31.58;;;;;;;;;;4983369;28;20429;-93
2021/12/31 04:30:20;;;;;;;52.22;30.83;;;;;;;;;;5000095;28;20046;-94
2021/12/31 04:32:46;;;;;;;52.10;33.53;;;;;;;;;;5000562;28;20062;-92
2021/12/31 04:35:13;;;;;;;62.03;39.70;;;;;;;;;;5000434;28;20030;-93
2021/12/31 04:37:41;;;;;;;157.32;83.55;;;;;;;;;;5000108;28;20023;-93
2021/12/31 04:40:08;;;;;;;145.93;74.72;;;;;;;;;;5000381;28;20105;-94
2021/12/31 04:42:34;;;;;;;95.22;53.92;;;;;;;;;;4983025;28;20069;-95
2021/12/31 04:45:00;;;;;;;82.30;49.22;;;;;;;;;;5000023;28;20019;-94
2021/12/31 04:47:26;;;;;;;83.38;49.08;;;;;;;;;;5000042;28;20029;-94
2021/12/31 04:49:52;;;;;;;68.95;40.03;;;;;;;;;;4982754;28;20026;-94
2021/12/31 04:52:18;;;;;;;63.13;37.28;;;;;;;;;;4982839;28;20023;-94
2021/12/31 04:54:44;;;;;;;51.83;33.33;;;;;;;;;;4999884;28;20029;-95
2021/12/31 04:57:10;;;;;;;57.05;33.88;;;;;;;;;;4982494;28;20054;-94
2021/12/31 04:59:36;;;;;;;59.85;32.95;;;;;;;;;;4999792;28;20026;-95
2021/12/31 05:02:02;;;;;;;55.60;33.13;;;;;;;;;;4999459;28;20058;-95
2021/12/31 05:04:28;;;;;;;55.65;32.45;;;;;;;;;;4982416;28;20425;-94
2021/12/31 05:06:55;;;;;;;55.25;32.78;;;;;;;;;;4999867;28;20026;-93
2021/12/31 05:09:21;;;;;;;54.90;33.20;;;;;;;;;;4999387;28;20117;-93
2021/12/31 05:11:47;;;;;;;57.03;36.83;;;;;;;;;;4999679;28;20034;-94
2021/12/31 05:14:13;;;;;;;59.45;36.35;;;;;;;;;;4999187;28;20046;-93
2021/12/31 05:16:39;;;;;;;61.47;39.38;;;;;;;;;;4999271;28;20435;-92
2021/12/31 05:19:06;;;;;;;65.75;41.85;;;;;;;;;;4982056;28;20076;-94
2021/12/31 05:21:32;;;;;;;59.72;38.00;;;;;;;;;;4982136;28;20018;-93
2021/12/31 05:23:58;;;;;;;58.25;34.03;;;;;;;;;;4982401;28;20389;-94
2021/12/31 05:26:25;;;;;;;54.38;34.65;;;;;;;;;;4999509;28;20093;-94
2021/12/31 05:28:51;;;;;;;58.10;35.97;;;;;;;;;;4999138;28;20413;-93
2021/12/31 05:31:17;;;;;;;66.82;39.20;;;;;;;;;;4981989;28;20068;-93
2021/12/31 05:33:43;;;;;;;67.32;40.10;;;;;;;;;;4999450;28;20023;-94
2021/12/31 05:36:09;;;;;;;66.35;38.90;;;;;;;;;;4981996;28;20022;-94
2021/12/31 06:34:37;;;;;;;102.85;55.53;;;;;;;;;;4993827;22;20379;-93
2021/12/31 06:37:03;;;;;;;132.80;66.53;;;;;;;;;;4997120;28;20042;-95
2021/12/31 06:39:29;;;;;;;130.32;64.47;;;;;;;;;;4997600;28;20037;-94
2021/12/31 06:41:55;;;;;;;120.95;60.20;;;;;;;;;;4998399;28;20026;-95
2021/12/31 06:44:21;;;;;;;129.05;59.90;;;;;;;;;;4998503;28;20023;-95
2021/12/31 06:46:47;;;;;;;188.90;75.25;;;;;;;;;;4997943;28;20022;-95
2021/12/31 06:49:13;;;;;;;132.60;63.00;;;;;;;;;;4998362;28;20101;-95
2021/12/31 06:51:39;;;;;;;108.18;58.60;;;;;;;;;;4998202;28;20059;-96
2021/12/31 06:54:05;;;;;;;125.65;68.63;;;;;;;;;;4999392;28;20045;-94
2021/12/31 06:56:32;;;;;;;125.07;74.07;;;;;;;;;;5001258;28;20014;-94
2021/12/31 06:58:58;;;;;;;132.63;80.05;;;;;;;;;;5001005;28;20022;-93
2021/12/31 07:01:24;;;;;;;144.70;90.57;;;;;;;;;;5002263;28;20024;-94
2021/12/31 07:03:50;;;;;;;258.20;116.95;;;;;;;;;;5001900;28;20467;-95
2021/12/31 07:06:16;;;;;;;153.35;87.05;;;;;;;;;;5002151;28;20026;-94
2021/12/31 07:08:45;;;;;;;112.65;71.65;;;;;;;;;;5002030;28;20031;-93
2021/12/31 07:11:11;;;;;;;115.38;72.03;;;;;;;;;;5000871;28;20030;-94
2021/12/31 07:13:37;;;;;;;116.65;72.50;;;;;;;;;;5001074;28;20027;-93
2021/12/31 07:16:04;;;;;;;100.60;61.05;;;;;;;;;;5001670;28;20026;-94
2021/12/31 07:18:30;;;;;;;94.15;56.72;;;;;;;;;;5001689;28;20039;-93
2021/12/31 07:20:56;;;;;;;108.95;60.95;;;;;;;;;;5000830;28;20022;-93
2021/12/31 07:23:23;;;;;;;114.05;59.15;;;;;;;;;;5000670;28;20109;-94
2021/12/31 07:25:49;;;;;;;110.80;65.78;;;;;;;;;;5000619;28;20221;-96
2021/12/31 07:28:16;;;;;;;99.65;59.95;;;;;;;;;;5001834;28;20105;-95
2021/12/31 07:30:42;;;;;;;82.25;48.55;;;;;;;;;;5000640;28;20032;-93
2021/12/31 07:33:19;;;;;;;73.40;43.17;;;;;;;;;;5001514;28;20109;-94
2021/12/31 07:35:46;;;;;;;83.30;50.08;;;;;;;;;;5001150;28;20050;-94
2021/12/31 07:38:20;;;;;;;84.07;47.35;;;;;;;;;;5001225;28;20030;-94
2021/12/31 07:40:48;;;;;;;85.53;51.95;;;;;;;;;;5000331;28;20026;-93
2021/12/31 07:43:14;;;;;;;82.40;50.97;;;;;;;;;;5001460;28;20022;-95
2021/12/31 07:45:40;;;;;;;78.40;42.53;;;;;;;;;;5016714;28;20046;-96
2021/12/31 07:48:06;;;;;;;61.85;37.13;;;;;;;;;;5020200;28;20026;-93
2021/12/31 07:50:33;;;;;;;62.22;37.38;;;;;;;;;;5019874;28;20038;-94
2021/12/31 07:52:59;;;;;;;64.38;38.33;;;;;;;;;;5020546;28;20057;-95
2021/12/31 07:55:25;;;;;;;59.08;34.40;;;;;;;;;;5020910;28;20038;-94
2021/12/31 07:57:51;;;;;;;65.82;37.53;;;;;;;;;;5020677;28;20060;-95
2021/12/31 08:00:17;;;;;;;66.18;36.05;;;;;;;;;;5019654;28;20237;-93
2021/12/31 08:02:43;;;;;;;67.18;38.72;;;;;;;;;;5020439;28;20339;-96
2021/12/31 08:05:09;;;;;;;96.22;56.47;;;;;;;;;;5021525;28;20034;-94
2021/12/31 08:07:36;;;;;;;79.80;47.28;;;;;;;;;;5020778;28;20018;-92
2021/12/31 08:10:03;;;;;;;103.05;57.08;;;;;;;;;;5021163;28;20030;-92
2021/12/31 08:12:30;;;;;;;206.73;114.25;;;;;;;;;;5022244;28;20066;-94
2021/12/31 08:14:57;;;;;;;129.75;73.20;;;;;;;;;;5025085;28;20026;-96
2021/12/31 08:17:23;;;;;;;83.43;47.67;;;;;;;;;;5007649;28;20065;-95
2021/12/31 08:19:49;;;;;;;70.68;43.17;;;;;;;;;;5020019;28;20485;-94
2021/12/31 08:22:15;;;;;;;118.18;63.33;;;;;;;;;;5020264;28;20045;-94
2021/12/31 08:24:41;;;;;;;83.10;46.83;;;;;;;;;;5020316;28;20026;-93
2021/12/31 08:27:07;;;;;;;85.40;50.85;;;;;;;;;;5018924;28;20132;-93
2021/12/31 08:29:33;;;;;;;78.95;46.78;;;;;;;;;;5019183;28;20030;-92
2021/12/31 08:31:59;;;;;;;163.20;80.68;;;;;;;;;;5019175;28;20076;-94
2021/12/31 08:34:25;;;;;;;117.32;62.90;;;;;;;;;;5019851;28;20052;-93
2021/12/31 08:36:52;;;;;;;93.57;55.15;;;;;;;;;;5019977;28;20033;-94
2021/12/31 08:39:18;;;;;;;73.78;44.13;;;;;;;;;;5020016;28;20026;-94
2021/12/31 08:41:44;;;;;;;72.45;42.65;;;;;;;;;;5020118;28;20028;-94
2021/12/31 08:44:10;;;;;;;70.28;41.65;;;;;;;;;;5019943;28;20026;-95
2021/12/31 08:46:36;;;;;;;69.03;41.72;;;;;;;;;;5019005;28;20076;-94
2021/12/31 08:49:03;;;;;;;74.10;45.53;;;;;;;;;;5019976;28;20029;-93
2021/12/31 08:51:29;;;;;;;87.95;53.30;;;;;;;;;;5019609;28;20022;-94
2021/12/31 08:53:56;;;;;;;87.10;47.83;;;;;;;;;;5018407;28;20087;-95
2021/12/31 08:56:22;;;;;;;95.75;54.13;;;;;;;;;;5018511;28;20045;-95
2021/12/31 08:58:48;;;;;;;72.32;45.22;;;;;;;;;;5019338;28;20022;-95
2021/12/31 09:01:15;;;;;;;105.65;56.08;;;;;;;;;;5018684;28;20022;-93
2021/12/31 09:03:41;;;;;;;93.28;53.97;;;;;;;;;;5019420;28;20093;-94
2021/12/31 09:06:07;;;;;;;67.53;41.90;;;;;;;;;;5019361;28;20018;-93
2021/12/31 09:08:34;;;;;;;69.32;41.75;;;;;;;;;;5019191;28;20045;-93
2021/12/31 09:11:00;;;;;;;73.93;46.45;;;;;;;;;;5019518;28;20416;-95
2021/12/31 09:13:31;;;;;;;64.70;41.75;;;;;;;;;;5019467;28;20034;-91
2021/12/31 09:15:57;;;;;;;96.47;55.28;;;;;;;;;;5018751;28;20056;-95
2021/12/31 09:18:23;;;;;;;177.50;87.00;;;;;;;;;;4997310;28;20022;-94
2021/12/31 09:20:49;;;;;;;146.10;81.88;;;;;;;;;;4998589;28;20030;-94
2021/12/31 09:26:19;;;;;;;76.10;46.35;;;;;;;;;;4999445;28;20064;-93
2021/12/31 09:28:45;;;;;;;92.50;52.60;;;;;;;;;;4998194;28;20141;-94
2021/12/31 09:31:12;;;;;;;73.85;45.15;;;;;;;;;;4999360;28;20065;-93
2021/12/31 09:33:38;;;;;;;78.78;48.90;;;;;;;;;;4998323;28;20035;-94
2021/12/31 09:36:04;;;;;;;100.70;56.47;;;;;;;;;;4998954;28;20046;-94
2021/12/31 09:41:34;;;;;;;119.30;58.60;;;;;;;;;;4999631;28;20072;-96
2021/12/31 09:44:00;;;;;;;80.10;45.83;;;;;;;;;;4998073;28;20025;-94
2021/12/31 09:46:26;;;;;;;96.38;51.22;;;;;;;;;;4998857;28;20026;-95
2021/12/31 09:48:53;;;;;;;87.28;50.20;;;;;;;;;;4999042;28;20076;-94
2021/12/31 09:51:19;;;;;;;75.05;44.60;;;;;;;;;;4997804;28;20073;-92
2021/12/31 09:53:46;;;;;;;81.50;47.40;;;;;;;;;;4999516;28;20026;-92
2021/12/31 09:56:15;;;;;;;75.60;46.05;;;;;;;;;;5004529;28;20309;-93
2021/12/31 09:58:41;;;;;;;78.13;45.13;;;;;;;;;;5018346;28;20026;-91
2021/12/31 10:01:09;;;;;;;63.75;41.95;;;;;;;;;;5018438;28;20030;-92
2021/12/31 10:03:36;;;;;;;75.65;46.40;;;;;;;;;;5017443;28;20412;-93
2021/12/31 10:06:09;;;;;;;66.28;40.22;;;;;;;;;;5018476;28;20037;-92
2021/12/31 10:09:00;;;;;;;76.32;47.88;;;;;;;;;;4994839;28;20031;-86
2021/12/31 10:11:26;;;;;;;68.45;44.40;;;;;;;;;;4995130;28;20474;-87
2021/12/31 10:13:52;;;;;;;90.35;48.25;;;;;;;;;;4998776;28;20034;-86
2021/12/31 10:16:25;;;;;;;72.30;41.50;;;;;;;;;;4999263;28;20080;-87
2021/12/31 10:19:11;;;;;;;87.95;49.08;;;;;;;;;;4998509;28;20029;-89
2021/12/31 10:21:42;;;;;;;82.22;46.97;;;;;;;;;;4997227;28;20034;-88
2021/12/31 10:24:21;;;;;;;81.60;45.88;;;;;;;;;;4998151;28;20047;-88
2021/12/31 10:26:47;;;;;;;72.10;40.35;;;;;;;;;;4997491;28;20034;-89
2021/12/31 10:29:13;;;;;;;75.22;40.80;;;;;;;;;;4998009;28;20030;-88
2021/12/31 10:31:44;;;;;;;68.03;40.72;;;;;;;;;;4998283;28;20064;-89
2021/12/31 10:34:25;;;;;;;63.70;41.08;;;;;;;;;;4998414;28;20041;-89
2021/12/31 10:36:51;;;;;;;73.13;42.40;;;;;;;;;;4998326;28;20408;-89
2021/12/31 10:39:19;;;;;;;66.97;39.53;;;;;;;;;;4997693;28;20324;-89
2021/12/31 10:41:46;;;;;;;73.30;41.58;;;;;;;;;;4998277;28;20416;-89
2021/12/31 10:44:12;;;;;;;84.38;44.08;;;;;;;;;;4997087;28;20023;-89
2021/12/31 10:46:38;;;;;;;89.65;44.33;;;;;;;;;;4998043;28;20077;-89
2021/12/31 10:49:09;;;;;;;93.00;45.50;;;;;;;;;;4998248;28;20401;-89
2021/12/31 10:51:39;;;;;;;79.57;42.35;;;;;;;;;;4997213;28;20054;-88
2021/12/31 10:55:00;;;;;;;86.38;44.55;;;;;;;;;;4998197;28;20018;-89
2021/12/31 10:57:34;;;;;;;79.07;43.63;;;;;;;;;;4996881;28;20037;-87
2021/12/31 11:00:00;;;;;;;102.60;56.42;;;;;;;;;;4998190;28;20026;-89
2021/12/31 11:02:26;;;;;;;90.65;48.05;;;;;;;;;;5015033;28;20022;-92
2021/12/31 11:04:52;;;;;;;72.93;41.85;;;;;;;;;;4997886;28;20431;-91
2021/12/31 11:07:19;;;;;;;98.63;49.22;;;;;;;;;;4997657;28;20476;-89
2021/12/31 11:09:45;;;;;;;63.17;39.47;;;;;;;;;;4999533;28;20030;-89
2021/12/31 11:12:13;;;;;;;60.92;39.80;;;;;;;;;;4977827;28;20035;-89
2021/12/31 11:14:40;;;;;;;67.78;40.30;;;;;;;;;;4991493;28;20026;-89
2021/12/31 11:17:06;;;;;;;63.85;40.53;;;;;;;;;;4997020;28;20420;-88
2021/12/31 11:19:32;;;;;;;60.47;38.67;;;;;;;;;;4997723;28;20026;-88
2021/12/31 11:21:59;;;;;;;56.47;36.78;;;;;;;;;;4997766;28;20072;-88
2021/12/31 11:24:34;;;;;;;55.30;37.22;;;;;;;;;;5000346;28;20053;-88
2021/12/31 11:27:20;;;;;;;52.63;36.75;;;;;;;;;;5013003;28;20037;-89
2021/12/31 11:29:46;;;;;;;61.05;39.83;;;;;;;;;;5003583;28;20026;-89
2021/12/31 11:32:12;;;;;;;59.30;39.17;;;;;;;;;;5001159;28;20030;-90
2021/12/31 11:34:39;;;;;;;52.55;34.25;;;;;;;;;;5008722;28;20377;-88
2021/12/31 11:37:05;;;;;;;51.17;34.80;;;;;;;;;;5017485;28;20041;-89
2021/12/31 11:39:34;;;;;;;67.47;40.60;;;;;;;;;;5017059;28;20080;-89
2021/12/31 11:42:02;;;;;;;59.53;38.40;;;;;;;;;;5003123;28;20027;-88
2021/12/31 11:44:29;;;;;;;68.93;46.05;;;;;;;;;;5003491;28;20029;-89
2021/12/31 11:47:09;;;;;;;66.88;44.15;;;;;;;;;;5009657;28;20029;-89
2021/12/31 11:49:35;;;;;;;61.03;41.55;;;;;;;;;;5006215;28;20054;-90
2021/12/31 11:52:05;;;;;;;64.40;41.70;;;;;;;;;;5006368;28;20352;-91
2021/12/31 11:54:32;;;;;;;69.30;46.22;;;;;;;;;;5003580;28;20022;-89
2021/12/31 11:56:59;;;;;;;72.55;46.45;;;;;;;;;;5009200;28;20320;-89
2021/12/31 11:59:37;;;;;;;92.72;56.03;;;;;;;;;;5020773;28;20026;-90
2021/12/31 12:02:07;;;;;;;73.68;47.60;;;;;;;;;;5008454;28;20133;-89
2021/12/31 12:04:34;;;;;;;60.20;40.65;;;;;;;;;;5018941;28;20049;-89
2021/12/31 12:07:19;;;;;;;58.70;39.38;;;;;;;;;;5004001;28;20035;-91
2021/12/31 12:09:45;;;;;;;55.00;38.95;;;;;;;;;;5014886;28;20033;-90
2021/12/31 12:12:15;;;;;;;58.13;38.67;;;;;;;;;;5004686;28;20046;-90
2021/12/31 12:14:42;;;;;;;53.50;35.22;;;;;;;;;;5010375;28;20114;-90
2021/12/31 12:17:09;;;;;;;65.00;38.10;;;;;;;;;;4999835;28;20030;-91
2021/12/31 12:19:47;;;;;;;57.92;39.50;;;;;;;;;;5000580;28;20065;-91
2021/12/31 12:22:39;;;;;;;55.80;37.67;;;;;;;;;;5001054;28;20037;-90
2021/12/31 12:25:24;;;;;;;54.67;35.70;;;;;;;;;;4998372;28;20053;-90
2021/12/31 12:28:06;;;;;;;81.60;43.17;;;;;;;;;;5000584;28;20332;-90
2021/12/31 12:30:34;;;;;;;96.70;51.35;;;;;;;;;;4996185;28;20048;-92
2021/12/31 12:35:40;;;;;;;74.65;41.50;;;;;;;;;;5003101;28;20114;-90
2021/12/31 12:38:06;;;;;;;50.60;31.58;;;;;;;;;;5006892;28;20038;-91
2021/12/31 12:40:38;;;;;;;59.58;34.78;;;;;;;;;;5000052;28;20098;-88
2021/12/31 12:43:12;;;;;;;51.88;34.90;;;;;;;;;;4999205;28;20038;-90
2021/12/31 12:45:39;;;;;;;61.70;40.70;;;;;;;;;;5000469;28;20034;-88
2021/12/31 12:48:05;;;;;;;61.72;40.90;;;;;;;;;;4999851;28;20361;-91
2021/12/31 12:50:31;;;;;;;53.10;35.33;;;;;;;;;;4999710;28;20073;-91
2021/12/31 12:52:57;;;;;;;54.72;34.35;;;;;;;;;;4999805;28;20148;-89
2021/12/31 12:55:24;;;;;;;50.28;33.88;;;;;;;;;;4999862;28;20046;-92
2021/12/31 12:57:54;;;;;;;62.47;39.40;;;;;;;;;;4999872;28;20413;-89
2021/12/31 13:00:40;;;;;;;47.13;31.77;;;;;;;;;;4998433;28;20057;-90
2021/12/31 13:03:08;;;;;;;59.65;37.55;;;;;;;;;;4998733;28;20054;-90
2021/12/31 13:05:34;;;;;;;64.10;37.97;;;;;;;;;;4999560;28;20026;-92
2021/12/31 13:08:00;;;;;;;59.83;35.30;;;;;;;;;;4999543;28;20030;-90
2021/12/31 13:10:28;;;;;;;51.90;33.28;;;;;;;;;;4999200;28;20344;-91
2021/12/31 13:12:54;;;;;;;62.15;37.70;;;;;;;;;;4998335;28;20486;-91
2021/12/31 13:15:21;;;;;;;64.40;36.72;;;;;;;;;;4999485;28;20031;-89
2021/12/31 13:17:57;;;;;;;54.55;32.65;;;;;;;;;;4999441;28;20027;-89
2021/12/31 13:20:25;;;;;;;58.88;32.40;;;;;;;;;;4999217;28;20030;-90
2021/12/31 13:22:54;;;;;;;50.15;30.30;;;;;;;;;;4999298;28;20054;-90
2021/12/31 13:28:40;;;;;;;55.55;31.98;;;;;;;;;;4999742;28;20040;-91
2021/12/31 13:31:10;;;;;;;57.72;35.13;;;;;;;;;;5012692;28;20033;-91
2021/12/31 13:33:40;;;;;;;54.17;33.10;;;;;;;;;;4999146;28;20019;-90
2021/12/31 13:36:09;;;;;;;56.42;34.53;;;;;;;;;;4998869;28;20142;-89
2021/12/31 13:39:08;;;;;;;58.85;36.17;;;;;;;;;;4999013;28;20121;-90
2021/12/31 13:41:43;;;;;;;56.80;39.33;;;;;;;;;;4958840;29;20031;-90
2021/12/31 13:44:12;;;;;;;62.47;38.50;;;;;;;;;;4939814;29;20028;-89
2021/12/31 13:46:44;;;;;;;66.82;42.95;;;;;;;;;;4947973;29;20015;-90
2021/12/31 13:49:17;;;;;;;74.75;51.22;;;;;;;;;;4958464;29;20488;-90
2021/12/31 13:51:43;;;;;;;54.67;41.97;;;;;;;;;;4958360;29;20043;-90
2021/12/31 13:54:11;;;;;;;43.97;30.83;;;;;;;;;;4941723;28;20049;-90
2021/12/31 13:56:37;;;;;;;55.13;37.53;;;;;;;;;;4942204;29;20035;-90
2021/12/31 13:59:15;;;;;;;81.80;50.40;;;;;;;;;;4958196;29;20037;-91
2021/12/31 14:02:01;;;;;;;110.85;55.08;;;;;;;;;;4958055;28;20037;-91
2021/12/31 14:04:27;;;;;;;79.70;47.78;;;;;;;;;;4957222;28;20042;-91
2021/12/31 14:06:56;;;;;;;69.40;46.08;;;;;;;;;;4958240;29;20027;-91
2021/12/31 14:09:22;;;;;;;71.13;47.72;;;;;;;;;;4957825;28;20027;-90
2021/12/31 14:11:48;;;;;;;61.20;44.30;;;;;;;;;;4958082;29;20040;-90
2021/12/31 14:14:14;;;;;;;63.50;43.63;;;;;;;;;;4958007;29;20424;-90
2021/12/31 14:16:40;;;;;;;58.22;39.22;;;;;;;;;;4957820;28;20034;-90
2021/12/31 14:19:06;;;;;;;56.38;36.55;;;;;;;;;;4998408;28;20428;-90
2021/12/31 14:21:32;;;;;;;62.35;41.42;;;;;;;;;;4998441;28;20520;-90
2021/12/31 14:23:58;;;;;;;60.38;41.85;;;;;;;;;;4998183;28;20499;-91
2021/12/31 14:26:25;;;;;;;61.10;44.00;;;;;;;;;;4998488;28;20068;-90
2021/12/31 14:28:51;;;;;;;69.15;43.08;;;;;;;;;;4997391;28;20423;-90
2021/12/31 14:31:17;;;;;;;58.85;41.17;;;;;;;;;;4998508;28;20037;-90
2021/12/31 14:33:43;;;;;;;59.25;42.47;;;;;;;;;;4997543;28;20046;-90
2021/12/31 14:36:09;;;;;;;63.40;43.60;;;;;;;;;;4997203;28;20062;-91
2021/12/31 14:38:36;;;;;;;59.03;40.97;;;;;;;;;;4997413;28;20037;-92
2021/12/31 14:41:13;;;;;;;51.40;36.13;;;;;;;;;;4998491;28;20032;-90
2021/12/31 14:43:39;;;;;;;62.00;43.25;;;;;;;;;;4997306;28;20084;-90
2021/12/31 14:46:05;;;;;;;69.97;48.78;;;;;;;;;;4998114;28;20290;-92
2021/12/31 14:48:31;;;;;;;80.95;49.83;;;;;;;;;;4998346;28;20031;-92
2021/12/31 14:50:57;;;;;;;72.85;48.58;;;;;;;;;;4997120;28;20030;-91
2021/12/31 14:53:23;;;;;;;65.63;43.85;;;;;;;;;;4997242;28;20117;-90
2021/12/31 14:55:49;;;;;;;60.15;40.83;;;;;;;;;;4997800;28;20022;-91
2021/12/31 14:58:16;;;;;;;60.95;40.72;;;;;;;;;;4997198;28;20054;-91
2021/12/31 15:00:42;;;;;;;64.50;41.15;;;;;;;;;;4998130;28;20022;-91
2021/12/31 15:03:08;;;;;;;78.30;50.33;;;;;;;;;;4998180;28;20023;-91
2021/12/31 15:05:34;;;;;;;80.75;52.15;;;;;;;;;;4998322;28;20022;-91
2021/12/31 15:08:02;;;;;;;83.50;53.60;;;;;;;;;;4997019;28;20043;-91
2021/12/31 15:10:28;;;;;;;110.90;68.40;;;;;;;;;;4997062;28;20030;-92
2021/12/31 15:12:55;;;;;;;122.22;73.00;;;;;;;;;;4997039;28;20053;-91
2021/12/31 15:15:21;;;;;;;115.28;68.45;;;;;;;;;;4999555;28;20073;-91
2021/12/31 15:17:47;;;;;;;120.57;70.03;;;;;;;;;;5001775;28;20026;-91
2021/12/31 15:20:14;;;;;;;105.72;60.78;;;;;;;;;;5002481;28;20026;-90
2021/12/31 15:22:41;;;;;;;101.57;58.20;;;;;;;;;;5001960;28;20101;-90
2021/12/31 15:25:07;;;;;;;86.18;51.30;;;;;;;;;;5000736;28;20023;-91
2021/12/31 15:27:33;;;;;;;105.10;61.35;;;;;;;;;;5000986;28;20027;-91
2021/12/31 15:29:59;;;;;;;114.38;66.22;;;;;;;;;;5001818;28;20018;-89
2021/12/31 15:32:26;;;;;;;101.82;65.18;;;;;;;;;;5001121;28;20105;-91
2021/12/31 15:34:52;;;;;;;92.30;59.63;;;;;;;;;;5000543;28;20050;-94